sensor_id;sensor_type;location;lat;lon;timestamp;temperature;humidity
65854;DHT22;52627;48.838;2.402;2023-12-20T00:01:12;10.48;85.27
65854;DHT22;52627;48.838;2.402;2023-12-20T00:03:39;10.49;85.28
65854;DHT22;52627;48.838;2.402;2023-12-20T00:06:09;10.50;85.26
65854;DHT22;52627;48.838;2.402;2023-12-20T00:08:37;10.49;85.22
65854;DHT22;52627;48.838;2.402;2023-12-20T00:11:04;10.48;85.21
65854;DHT22;52627;48.838;2.402;2023-12-20T00:13:30;10.49;85.23
65854;DHT22;52627;48.838;2.402;2023-12-20T00:15:58;10.47;85.20
65854;DHT22;52627;48.838;2.402;2023-12-20T00:18:25;10.45;85.18
65854;DHT22;52627;48.838;2.402;2023-12-20T00:20:51;10.45;85.14
65854;DHT22;52627;48.838;2.402;2023-12-20T00:23:18;10.44;85.14
65854;DHT22;52627;48.838;2.402;2023-12-20T00:25:45;10.44;85.14
65854;DHT22;52627;48.838;2.402;2023-12-20T00:28:12;10.44;85.10
65854;DHT22;52627;48.838;2.402;2023-12-20T00:30:39;10.44;85.06
65854;DHT22;52627;48.838;2.402;2023-12-20T00:33:06;10.43;85.01
65854;DHT22;52627;48.838;2.402;2023-12-20T00:35:32;10.42;85.00
65854;DHT22;52627;48.838;2.402;2023-12-20T00:37:59;10.40;84.87
65854;DHT22;52627;48.838;2.402;2023-12-20T00:40:26;10.37;84.76
65854;DHT22;52627;48.838;2.402;2023-12-20T00:42:53;10.33;84.62
65854;DHT22;52627;48.838;2.402;2023-12-20T00:45:20;10.28;84.49
65854;DHT22;52627;48.838;2.402;2023-12-20T00:47:47;10.24;84.36
65854;DHT22;52627;48.838;2.402;2023-12-20T00:50:14;10.21;84.30
65854;DHT22;52627;48.838;2.402;2023-12-20T00:52:41;10.18;84.20
65854;DHT22;52627;48.838;2.402;2023-12-20T00:55:08;10.16;84.18
65854;DHT22;52627;48.838;2.402;2023-12-20T00:57:35;10.13;84.02
65854;DHT22;52627;48.838;2.402;2023-12-20T01:00:02;10.09;83.78
65854;DHT22;52627;48.838;2.402;2023-12-20T01:02:29;10.04;83.63
65854;DHT22;52627;48.838;2.402;2023-12-20T01:04:56;9.98;83.40
65854;DHT22;52627;48.838;2.402;2023-12-20T01:07:22;9.92;83.18
65854;DHT22;52627;48.838;2.402;2023-12-20T01:09:49;9.85;82.92
65854;DHT22;52627;48.838;2.402;2023-12-20T01:12:16;9.81;82.89
65854;DHT22;52627;48.838;2.402;2023-12-20T01:14:43;9.77;82.78
65854;DHT22;52627;48.838;2.402;2023-12-20T01:17:10;9.71;82.52
65854;DHT22;52627;48.838;2.402;2023-12-20T01:19:36;9.67;82.51
65854;DHT22;52627;48.838;2.402;2023-12-20T01:22:04;9.64;82.48
65854;DHT22;52627;48.838;2.402;2023-12-20T01:24:31;9.61;82.43
65854;DHT22;52627;48.838;2.402;2023-12-20T01:26:58;9.59;82.37
65854;DHT22;52627;48.838;2.402;2023-12-20T01:29:25;9.54;82.25
65854;DHT22;52627;48.838;2.402;2023-12-20T01:31:51;9.50;82.20
65854;DHT22;52627;48.838;2.402;2023-12-20T01:34:18;9.47;82.19
65854;DHT22;52627;48.838;2.402;2023-12-20T01:36:46;9.46;82.20
65854;DHT22;52627;48.838;2.402;2023-12-20T01:39:12;9.44;82.12
65854;DHT22;52627;48.838;2.402;2023-12-20T01:41:54;9.41;82.03
65854;DHT22;52627;48.838;2.402;2023-12-20T01:44:21;9.38;82.00
65854;DHT22;52627;48.838;2.402;2023-12-20T01:46:47;9.36;81.99
65854;DHT22;52627;48.838;2.402;2023-12-20T01:49:15;9.34;81.97
65854;DHT22;52627;48.838;2.402;2023-12-20T01:51:42;9.32;81.91
65854;DHT22;52627;48.838;2.402;2023-12-20T01:54:10;9.29;81.86
65854;DHT22;52627;48.838;2.402;2023-12-20T01:56:37;9.25;81.80
65854;DHT22;52627;48.838;2.402;2023-12-20T01:59:04;9.23;81.79
65854;DHT22;52627;48.838;2.402;2023-12-20T02:01:33;9.19;81.71
65854;DHT22;52627;48.838;2.402;2023-12-20T02:04:00;9.18;81.74
65854;DHT22;52627;48.838;2.402;2023-12-20T02:06:31;9.17;81.70
65854;DHT22;52627;48.838;2.402;2023-12-20T02:09:00;9.16;81.70
65854;DHT22;52627;48.838;2.402;2023-12-20T02:11:27;9.13;81.60
65854;DHT22;52627;48.838;2.402;2023-12-20T02:13:55;9.12;81.60
65854;DHT22;52627;48.838;2.402;2023-12-20T02:16:22;9.11;81.52
65854;DHT22;52627;48.838;2.402;2023-12-20T02:18:49;9.11;81.51
65854;DHT22;52627;48.838;2.402;2023-12-20T02:21:16;9.12;81.58
65854;DHT22;52627;48.838;2.402;2023-12-20T02:23:43;9.14;81.68
65854;DHT22;52627;48.838;2.402;2023-12-20T02:26:10;9.15;81.63
65854;DHT22;52627;48.838;2.402;2023-12-20T02:28:37;9.15;81.49
65854;DHT22;52627;48.838;2.402;2023-12-20T02:31:04;9.13;81.28
65854;DHT22;52627;48.838;2.402;2023-12-20T02:33:31;9.12;81.22
65854;DHT22;52627;48.838;2.402;2023-12-20T02:35:58;9.11;81.17
65854;DHT22;52627;48.838;2.402;2023-12-20T02:38:24;9.10;81.10
65854;DHT22;52627;48.838;2.402;2023-12-20T02:40:52;9.09;81.07
65854;DHT22;52627;48.838;2.402;2023-12-20T02:43:18;9.09;80.99
65854;DHT22;52627;48.838;2.402;2023-12-20T02:45:45;9.08;80.89
65854;DHT22;52627;48.838;2.402;2023-12-20T02:48:12;9.08;80.81
65854;DHT22;52627;48.838;2.402;2023-12-20T02:50:39;9.07;80.73
65854;DHT22;52627;48.838;2.402;2023-12-20T02:53:06;9.06;80.70
65854;DHT22;52627;48.838;2.402;2023-12-20T02:55:32;9.05;80.66
65854;DHT22;52627;48.838;2.402;2023-12-20T02:57:59;9.04;80.61
65854;DHT22;52627;48.838;2.402;2023-12-20T03:00:26;9.03;80.53
65854;DHT22;52627;48.838;2.402;2023-12-20T03:02:53;9.02;80.49
65854;DHT22;52627;48.838;2.402;2023-12-20T03:05:19;9.00;80.47
65854;DHT22;52627;48.838;2.402;2023-12-20T03:07:47;8.98;80.40
65854;DHT22;52627;48.838;2.402;2023-12-20T03:10:14;8.98;80.34
65854;DHT22;52627;48.838;2.402;2023-12-20T03:12:50;8.96;80.28
65854;DHT22;52627;48.838;2.402;2023-12-20T03:15:17;8.95;80.26
65854;DHT22;52627;48.838;2.402;2023-12-20T03:17:43;8.93;80.22
65854;DHT22;52627;48.838;2.402;2023-12-20T03:20:11;8.91;80.20
65854;DHT22;52627;48.838;2.402;2023-12-20T03:22:38;8.90;80.19
65854;DHT22;52627;48.838;2.402;2023-12-20T03:25:05;8.89;80.13
65854;DHT22;52627;48.838;2.402;2023-12-20T03:27:32;8.86;80.10
65854;DHT22;52627;48.838;2.402;2023-12-20T03:29:59;8.84;80.07
65854;DHT22;52627;48.838;2.402;2023-12-20T03:32:26;8.83;80.05
65854;DHT22;52627;48.838;2.402;2023-12-20T03:34:53;8.82;80.08
65854;DHT22;52627;48.838;2.402;2023-12-20T03:37:20;8.81;80.04
65854;DHT22;52627;48.838;2.402;2023-12-20T03:39:48;8.78;80.00
65854;DHT22;52627;48.838;2.402;2023-12-20T03:42:15;8.77;80.00
65854;DHT22;52627;48.838;2.402;2023-12-20T03:44:42;8.76;79.99
65854;DHT22;52627;48.838;2.402;2023-12-20T03:47:08;8.74;79.94
65854;DHT22;52627;48.838;2.402;2023-12-20T03:49:35;8.72;79.98
65854;DHT22;52627;48.838;2.402;2023-12-20T03:52:03;8.72;79.95
65854;DHT22;52627;48.838;2.402;2023-12-20T03:54:31;8.72;79.90
65854;DHT22;52627;48.838;2.402;2023-12-20T03:56:59;8.71;79.90
65854;DHT22;52627;48.838;2.402;2023-12-20T03:59:26;8.70;79.91
65854;DHT22;52627;48.838;2.402;2023-12-20T04:01:53;8.69;79.90
65854;DHT22;52627;48.838;2.402;2023-12-20T04:04:20;8.68;79.87
65854;DHT22;52627;48.838;2.402;2023-12-20T04:06:47;8.67;79.86
65854;DHT22;52627;48.838;2.402;2023-12-20T04:09:14;8.65;79.81
65854;DHT22;52627;48.838;2.402;2023-12-20T04:11:40;8.65;79.82
65854;DHT22;52627;48.838;2.402;2023-12-20T04:14:07;8.65;79.83
65854;DHT22;52627;48.838;2.402;2023-12-20T04:16:34;8.63;79.81
65854;DHT22;52627;48.838;2.402;2023-12-20T04:19:01;8.62;79.78
65854;DHT22;52627;48.838;2.402;2023-12-20T04:21:29;8.60;79.72
65854;DHT22;52627;48.838;2.402;2023-12-20T04:23:55;8.59;79.72
65854;DHT22;52627;48.838;2.402;2023-12-20T04:26:22;8.58;79.70
65854;DHT22;52627;48.838;2.402;2023-12-20T04:28:49;8.56;79.70
65854;DHT22;52627;48.838;2.402;2023-12-20T04:31:18;8.57;79.70
65854;DHT22;52627;48.838;2.402;2023-12-20T04:33:45;8.56;79.70
65854;DHT22;52627;48.838;2.402;2023-12-20T04:36:12;8.57;79.69
65854;DHT22;52627;48.838;2.402;2023-12-20T04:38:39;8.56;79.66
65854;DHT22;52627;48.838;2.402;2023-12-20T04:41:06;8.55;79.60
65854;DHT22;52627;48.838;2.402;2023-12-20T04:43:33;8.54;79.62
65854;DHT22;52627;48.838;2.402;2023-12-20T04:45:59;8.53;79.61
65854;DHT22;52627;48.838;2.402;2023-12-20T04:48:26;8.52;79.58
65854;DHT22;52627;48.838;2.402;2023-12-20T04:50:53;8.51;79.56
65854;DHT22;52627;48.838;2.402;2023-12-20T04:53:20;8.49;79.58
65854;DHT22;52627;48.838;2.402;2023-12-20T04:55:46;8.49;79.60
65854;DHT22;52627;48.838;2.402;2023-12-20T04:58:13;8.49;79.60
65854;DHT22;52627;48.838;2.402;2023-12-20T05:00:40;8.47;79.54
65854;DHT22;52627;48.838;2.402;2023-12-20T05:03:07;8.46;79.51
65854;DHT22;52627;48.838;2.402;2023-12-20T05:05:34;8.46;79.53
65854;DHT22;52627;48.838;2.402;2023-12-20T05:08:01;8.45;79.50
65854;DHT22;52627;48.838;2.402;2023-12-20T05:10:28;8.44;79.50
65854;DHT22;52627;48.838;2.402;2023-12-20T05:12:55;8.44;79.50
65854;DHT22;52627;48.838;2.402;2023-12-20T05:15:22;8.43;79.48
65854;DHT22;52627;48.838;2.402;2023-12-20T05:17:48;8.43;79.49
65854;DHT22;52627;48.838;2.402;2023-12-20T05:20:16;8.42;79.44
65854;DHT22;52627;48.838;2.402;2023-12-20T05:22:43;8.40;79.42
65854;DHT22;52627;48.838;2.402;2023-12-20T05:25:11;8.39;79.43
65854;DHT22;52627;48.838;2.402;2023-12-20T05:27:38;8.40;79.48
65854;DHT22;52627;48.838;2.402;2023-12-20T05:30:05;8.40;79.42
65854;DHT22;52627;48.838;2.402;2023-12-20T05:32:33;8.39;79.40
65854;DHT22;52627;48.838;2.402;2023-12-20T05:34:59;8.39;79.40
65854;DHT22;52627;48.838;2.402;2023-12-20T05:37:27;8.39;79.40
65854;DHT22;52627;48.838;2.402;2023-12-20T05:39:53;8.37;79.40
65854;DHT22;52627;48.838;2.402;2023-12-20T05:42:21;8.37;79.38
65854;DHT22;52627;48.838;2.402;2023-12-20T05:44:47;8.35;79.33
65854;DHT22;52627;48.838;2.402;2023-12-20T05:47:17;8.32;79.37
65854;DHT22;52627;48.838;2.402;2023-12-20T05:49:44;8.31;79.37
65854;DHT22;52627;48.838;2.402;2023-12-20T05:52:11;8.29;79.31
65854;DHT22;52627;48.838;2.402;2023-12-20T05:54:38;8.27;79.30
65854;DHT22;52627;48.838;2.402;2023-12-20T05:57:06;8.26;79.32
65854;DHT22;52627;48.838;2.402;2023-12-20T05:59:32;8.24;79.33
65854;DHT22;52627;48.838;2.402;2023-12-20T06:01:59;8.24;79.30
65854;DHT22;52627;48.838;2.402;2023-12-20T06:04:26;8.23;79.30
65854;DHT22;52627;48.838;2.402;2023-12-20T06:06:53;8.23;79.33
65854;DHT22;52627;48.838;2.402;2023-12-20T06:09:20;8.21;79.30
65854;DHT22;52627;48.838;2.402;2023-12-20T06:11:46;8.20;79.30
65854;DHT22;52627;48.838;2.402;2023-12-20T06:14:13;8.19;79.30
65854;DHT22;52627;48.838;2.402;2023-12-20T06:16:40;8.20;79.30
65854;DHT22;52627;48.838;2.402;2023-12-20T06:19:07;8.19;79.30
65854;DHT22;52627;48.838;2.402;2023-12-20T06:21:34;8.18;79.30
65854;DHT22;52627;48.838;2.402;2023-12-20T06:24:01;8.18;79.30
65854;DHT22;52627;48.838;2.402;2023-12-20T06:26:27;8.17;79.30
65854;DHT22;52627;48.838;2.402;2023-12-20T06:28:54;8.18;79.31
65854;DHT22;52627;48.838;2.402;2023-12-20T06:31:21;8.16;79.30
65854;DHT22;52627;48.838;2.402;2023-12-20T06:33:48;8.16;79.30
65854;DHT22;52627;48.838;2.402;2023-12-20T06:36:23;8.16;79.30
65854;DHT22;52627;48.838;2.402;2023-12-20T06:38:53;8.18;79.30
65854;DHT22;52627;48.838;2.402;2023-12-20T06:41:34;8.17;79.29
65854;DHT22;52627;48.838;2.402;2023-12-20T06:44:00;8.16;79.29
65854;DHT22;52627;48.838;2.402;2023-12-20T06:46:27;8.17;79.30
65854;DHT22;52627;48.838;2.402;2023-12-20T06:48:54;8.16;79.29
65854;DHT22;52627;48.838;2.402;2023-12-20T06:51:21;8.15;79.24
65854;DHT22;52627;48.838;2.402;2023-12-20T06:53:52;8.13;79.24
65854;DHT22;52627;48.838;2.402;2023-12-20T06:56:19;8.11;79.27
65854;DHT22;52627;48.838;2.402;2023-12-20T06:58:46;8.12;79.31
65854;DHT22;52627;48.838;2.402;2023-12-20T07:01:13;8.13;79.30
65854;DHT22;52627;48.838;2.402;2023-12-20T07:03:41;8.12;79.30
65854;DHT22;52627;48.838;2.402;2023-12-20T07:06:09;8.12;79.33
65854;DHT22;52627;48.838;2.402;2023-12-20T07:08:35;8.14;79.33
65854;DHT22;52627;48.838;2.402;2023-12-20T07:11:02;8.14;79.35
65854;DHT22;52627;48.838;2.402;2023-12-20T07:13:29;8.14;79.37
65854;DHT22;52627;48.838;2.402;2023-12-20T07:15:56;8.14;79.38
65854;DHT22;52627;48.838;2.402;2023-12-20T07:18:23;8.13;79.35
65854;DHT22;52627;48.838;2.402;2023-12-20T07:20:50;8.12;79.40
65854;DHT22;52627;48.838;2.402;2023-12-20T07:23:17;8.11;79.40
65854;DHT22;52627;48.838;2.402;2023-12-20T07:25:46;8.11;79.40
65854;DHT22;52627;48.838;2.402;2023-12-20T07:28:12;8.10;79.40
65854;DHT22;52627;48.838;2.402;2023-12-20T07:30:39;8.10;79.40
65854;DHT22;52627;48.838;2.402;2023-12-20T07:33:06;8.08;79.40
65854;DHT22;52627;48.838;2.402;2023-12-20T07:35:35;8.07;79.42
65854;DHT22;52627;48.838;2.402;2023-12-20T07:38:03;8.07;79.50
65854;DHT22;52627;48.838;2.402;2023-12-20T07:40:30;8.08;79.50
65854;DHT22;52627;48.838;2.402;2023-12-20T07:42:57;8.08;79.50
65854;DHT22;52627;48.838;2.402;2023-12-20T07:45:24;8.08;79.50
65854;DHT22;52627;48.838;2.402;2023-12-20T07:47:51;8.07;79.50
65854;DHT22;52627;48.838;2.402;2023-12-20T07:50:18;8.08;79.51
65854;DHT22;52627;48.838;2.402;2023-12-20T07:52:45;8.09;79.55
65854;DHT22;52627;48.838;2.402;2023-12-20T07:55:12;8.08;79.53
65854;DHT22;52627;48.838;2.402;2023-12-20T07:57:39;8.11;79.60
65854;DHT22;52627;48.838;2.402;2023-12-20T08:00:06;8.12;79.63
65854;DHT22;52627;48.838;2.402;2023-12-20T08:02:33;8.14;79.60
65854;DHT22;52627;48.838;2.402;2023-12-20T08:05:00;8.15;79.60
65854;DHT22;52627;48.838;2.402;2023-12-20T08:07:27;8.15;79.60
65854;DHT22;52627;48.838;2.402;2023-12-20T08:09:53;8.15;79.61
65854;DHT22;52627;48.838;2.402;2023-12-20T08:12:22;8.16;79.62
65854;DHT22;52627;48.838;2.402;2023-12-20T08:14:49;8.16;79.64
65854;DHT22;52627;48.838;2.402;2023-12-20T08:17:16;8.17;79.63
65854;DHT22;52627;48.838;2.402;2023-12-20T08:19:44;8.17;79.60
65854;DHT22;52627;48.838;2.402;2023-12-20T08:22:11;8.18;79.65
65854;DHT22;52627;48.838;2.402;2023-12-20T08:24:38;8.20;79.69
65854;DHT22;52627;48.838;2.402;2023-12-20T08:27:05;8.21;79.67
65854;DHT22;52627;48.838;2.402;2023-12-20T08:29:32;8.22;79.68
65854;DHT22;52627;48.838;2.402;2023-12-20T08:31:58;8.23;79.66
65854;DHT22;52627;48.838;2.402;2023-12-20T08:34:25;8.25;79.69
65854;DHT22;52627;48.838;2.402;2023-12-20T08:36:52;8.27;79.70
65854;DHT22;52627;48.838;2.402;2023-12-20T08:39:20;8.28;79.68
65854;DHT22;52627;48.838;2.402;2023-12-20T08:41:47;8.29;79.67
65854;DHT22;52627;48.838;2.402;2023-12-20T08:44:13;8.29;79.69
65854;DHT22;52627;48.838;2.402;2023-12-20T08:46:40;8.31;79.68
65854;DHT22;52627;48.838;2.402;2023-12-20T08:49:07;8.32;79.69
65854;DHT22;52627;48.838;2.402;2023-12-20T08:51:36;8.33;79.63
65854;DHT22;52627;48.838;2.402;2023-12-20T08:54:06;8.34;79.64
65854;DHT22;52627;48.838;2.402;2023-12-20T08:56:34;8.34;79.60
65854;DHT22;52627;48.838;2.402;2023-12-20T08:59:01;8.34;79.60
65854;DHT22;52627;48.838;2.402;2023-12-20T09:01:28;8.35;79.60
65854;DHT22;52627;48.838;2.402;2023-12-20T09:03:55;8.36;79.60
65854;DHT22;52627;48.838;2.402;2023-12-20T09:06:22;8.38;79.60
65854;DHT22;52627;48.838;2.402;2023-12-20T09:08:48;8.39;79.60
65854;DHT22;52627;48.838;2.402;2023-12-20T09:11:15;8.42;79.60
65854;DHT22;52627;48.838;2.402;2023-12-20T09:13:44;8.42;79.60
65854;DHT22;52627;48.838;2.402;2023-12-20T09:16:11;8.43;79.60
65854;DHT22;52627;48.838;2.402;2023-12-20T09:18:39;8.44;79.60
65854;DHT22;52627;48.838;2.402;2023-12-20T09:21:06;8.45;79.60
65854;DHT22;52627;48.838;2.402;2023-12-20T09:23:33;8.47;79.60
65854;DHT22;52627;48.838;2.402;2023-12-20T09:25:59;8.49;79.60
65854;DHT22;52627;48.838;2.402;2023-12-20T09:28:26;8.54;79.52
65854;DHT22;52627;48.838;2.402;2023-12-20T09:30:53;8.57;79.54
65854;DHT22;52627;48.838;2.402;2023-12-20T09:33:20;8.61;79.50
65854;DHT22;52627;48.838;2.402;2023-12-20T09:35:47;8.66;79.54
65854;DHT22;52627;48.838;2.402;2023-12-20T09:38:14;8.69;79.50
65854;DHT22;52627;48.838;2.402;2023-12-20T09:40:43;8.73;79.48
65854;DHT22;52627;48.838;2.402;2023-12-20T09:43:11;8.74;79.43
65854;DHT22;52627;48.838;2.402;2023-12-20T09:45:42;8.77;79.42
65854;DHT22;52627;48.838;2.402;2023-12-20T09:48:12;8.81;79.40
65854;DHT22;52627;48.838;2.402;2023-12-20T09:50:43;8.83;79.38
65854;DHT22;52627;48.838;2.402;2023-12-20T09:53:16;8.87;79.40
65854;DHT22;52627;48.838;2.402;2023-12-20T09:55:45;8.92;79.36
65854;DHT22;52627;48.838;2.402;2023-12-20T09:58:12;8.96;79.31
65854;DHT22;52627;48.838;2.402;2023-12-20T10:00:39;9.00;79.30
65854;DHT22;52627;48.838;2.402;2023-12-20T10:03:06;9.03;79.29
65854;DHT22;52627;48.838;2.402;2023-12-20T10:05:34;9.08;79.27
65854;DHT22;52627;48.838;2.402;2023-12-20T10:08:01;9.13;79.27
65854;DHT22;52627;48.838;2.402;2023-12-20T10:10:30;9.16;79.20
65854;DHT22;52627;48.838;2.402;2023-12-20T10:13:11;9.21;79.19
65854;DHT22;52627;48.838;2.402;2023-12-20T10:15:40;9.26;79.19
65854;DHT22;52627;48.838;2.402;2023-12-20T10:18:07;9.31;79.13
65854;DHT22;52627;48.838;2.402;2023-12-20T10:20:34;9.34;79.04
65854;DHT22;52627;48.838;2.402;2023-12-20T10:23:01;9.36;79.01
65854;DHT22;52627;48.838;2.402;2023-12-20T10:25:28;9.38;78.99
65854;DHT22;52627;48.838;2.402;2023-12-20T10:28:09;9.41;78.91
65854;DHT22;52627;48.838;2.402;2023-12-20T10:30:41;9.43;78.90
65854;DHT22;52627;48.838;2.402;2023-12-20T10:33:09;9.46;78.87
65854;DHT22;52627;48.838;2.402;2023-12-20T10:35:36;9.49;78.80
65854;DHT22;52627;48.838;2.402;2023-12-20T10:38:08;9.49;78.72
65854;DHT22;52627;48.838;2.402;2023-12-20T10:40:35;9.51;78.70
65854;DHT22;52627;48.838;2.402;2023-12-20T10:43:03;9.53;78.66
65854;DHT22;52627;48.838;2.402;2023-12-20T10:45:31;9.55;78.63
65854;DHT22;52627;48.838;2.402;2023-12-20T10:47:58;9.58;78.60
65854;DHT22;52627;48.838;2.402;2023-12-20T10:50:26;9.62;78.52
65854;DHT22;52627;48.838;2.402;2023-12-20T10:52:55;9.65;78.50
65854;DHT22;52627;48.838;2.402;2023-12-20T10:55:22;9.68;78.40
65854;DHT22;52627;48.838;2.402;2023-12-20T10:57:51;9.70;78.36
65854;DHT22;52627;48.838;2.402;2023-12-20T11:00:19;9.74;78.32
65854;DHT22;52627;48.838;2.402;2023-12-20T11:02:49;9.76;78.28
65854;DHT22;52627;48.838;2.402;2023-12-20T11:08:46;9.79;78.11
65854;DHT22;52627;48.838;2.402;2023-12-20T11:11:04;9.79;78.06
65854;DHT22;52627;48.838;2.402;2023-12-20T11:13:57;9.78;78.02
65854;DHT22;52627;48.838;2.402;2023-12-20T11:16:28;9.78;78.00
65854;DHT22;52627;48.838;2.402;2023-12-20T11:19:07;9.78;77.98
65854;DHT22;52627;48.838;2.402;2023-12-20T11:21:35;9.76;77.94
65854;DHT22;52627;48.838;2.402;2023-12-20T11:24:02;9.77;77.90
65854;DHT22;52627;48.838;2.402;2023-12-20T11:26:30;9.76;77.84
65854;DHT22;52627;48.838;2.402;2023-12-20T11:32:01;9.77;77.77
65854;DHT22;52627;48.838;2.402;2023-12-20T11:34:31;9.77;77.76
65854;DHT22;52627;48.838;2.402;2023-12-20T11:37:00;9.81;77.74
65854;DHT22;52627;48.838;2.402;2023-12-20T11:39:29;9.83;77.67
65854;DHT22;52627;48.838;2.402;2023-12-20T11:41:57;9.86;77.60
65854;DHT22;52627;48.838;2.402;2023-12-20T11:44:30;9.87;77.50
65854;DHT22;52627;48.838;2.402;2023-12-20T11:46:58;9.90;77.47
65854;DHT22;52627;48.838;2.402;2023-12-20T11:49:25;9.93;77.44
65854;DHT22;52627;48.838;2.402;2023-12-20T11:51:52;9.98;77.40
65854;DHT22;52627;48.838;2.402;2023-12-20T11:54:19;10.02;77.38
65854;DHT22;52627;48.838;2.402;2023-12-20T11:56:46;10.07;77.34
65854;DHT22;52627;48.838;2.402;2023-12-20T11:59:14;10.10;77.30
65854;DHT22;52627;48.838;2.402;2023-12-20T12:01:50;10.15;77.27
65854;DHT22;52627;48.838;2.402;2023-12-20T12:04:18;10.18;77.13
65854;DHT22;52627;48.838;2.402;2023-12-20T12:06:45;10.21;77.12
65854;DHT22;52627;48.838;2.402;2023-12-20T12:09:12;10.24;76.99
65854;DHT22;52627;48.838;2.402;2023-12-20T12:11:39;10.27;76.98
65854;DHT22;52627;48.838;2.402;2023-12-20T12:14:07;10.31;76.91
65854;DHT22;52627;48.838;2.402;2023-12-20T12:16:34;10.31;76.86
65854;DHT22;52627;48.838;2.402;2023-12-20T12:19:01;10.33;76.82
65854;DHT22;52627;48.838;2.402;2023-12-20T12:21:28;10.33;76.76
65854;DHT22;52627;48.838;2.402;2023-12-20T12:24:06;10.32;76.70
65854;DHT22;52627;48.838;2.402;2023-12-20T12:26:35;10.34;76.69
65854;DHT22;52627;48.838;2.402;2023-12-20T12:29:01;10.34;76.66
65854;DHT22;52627;48.838;2.402;2023-12-20T12:31:28;10.35;76.60
65854;DHT22;52627;48.838;2.402;2023-12-20T12:33:56;10.35;76.60
65854;DHT22;52627;48.838;2.402;2023-12-20T12:36:24;10.35;76.60
65854;DHT22;52627;48.838;2.402;2023-12-20T12:38:50;10.36;76.64
65854;DHT22;52627;48.838;2.402;2023-12-20T12:41:18;10.32;76.85
65854;DHT22;52627;48.838;2.402;2023-12-20T12:43:44;10.29;77.02
65854;DHT22;52627;48.838;2.402;2023-12-20T12:46:11;10.26;77.11
65854;DHT22;52627;48.838;2.402;2023-12-20T12:48:38;10.25;77.19
65854;DHT22;52627;48.838;2.402;2023-12-20T12:51:06;10.25;77.20
65854;DHT22;52627;48.838;2.402;2023-12-20T12:53:34;10.25;77.20
65854;DHT22;52627;48.838;2.402;2023-12-20T12:56:01;10.25;77.26
65854;DHT22;52627;48.838;2.402;2023-12-20T12:58:27;10.25;77.30
65854;DHT22;52627;48.838;2.402;2023-12-20T13:00:54;10.27;77.28
65854;DHT22;52627;48.838;2.402;2023-12-20T13:03:22;10.28;77.29
65854;DHT22;52627;48.838;2.402;2023-12-20T13:05:48;10.29;77.30
65854;DHT22;52627;48.838;2.402;2023-12-20T13:08:16;10.31;77.30
65854;DHT22;52627;48.838;2.402;2023-12-20T13:10:43;10.34;77.30
65854;DHT22;52627;48.838;2.402;2023-12-20T13:13:09;10.35;77.29
65854;DHT22;52627;48.838;2.402;2023-12-20T13:15:36;10.39;77.30
65854;DHT22;52627;48.838;2.402;2023-12-20T13:18:03;10.41;77.30
65854;DHT22;52627;48.838;2.402;2023-12-20T13:20:32;10.44;77.30
65854;DHT22;52627;48.838;2.402;2023-12-20T13:22:59;10.46;77.33
65854;DHT22;52627;48.838;2.402;2023-12-20T13:25:26;10.48;77.38
65854;DHT22;52627;48.838;2.402;2023-12-20T13:27:53;10.50;77.34
65854;DHT22;52627;48.838;2.402;2023-12-20T13:30:20;10.50;77.39
65854;DHT22;52627;48.838;2.402;2023-12-20T13:32:47;10.51;77.38
65854;DHT22;52627;48.838;2.402;2023-12-20T13:35:15;10.52;77.38
65854;DHT22;52627;48.838;2.402;2023-12-20T13:37:42;10.52;77.36
65854;DHT22;52627;48.838;2.402;2023-12-20T13:40:11;10.52;77.31
65854;DHT22;52627;48.838;2.402;2023-12-20T13:42:39;10.54;77.30
65854;DHT22;52627;48.838;2.402;2023-12-20T13:45:06;10.56;77.32
65854;DHT22;52627;48.838;2.402;2023-12-20T13:47:34;10.59;77.31
65854;DHT22;52627;48.838;2.402;2023-12-20T13:50:02;10.59;77.30
65854;DHT22;52627;48.838;2.402;2023-12-20T13:52:30;10.60;77.30
65854;DHT22;52627;48.838;2.402;2023-12-20T13:54:57;10.62;77.33
65854;DHT22;52627;48.838;2.402;2023-12-20T13:57:24;10.64;77.31
65854;DHT22;52627;48.838;2.402;2023-12-20T14:00:10;10.66;77.30
65854;DHT22;52627;48.838;2.402;2023-12-20T14:02:41;10.66;77.23
65854;DHT22;52627;48.838;2.402;2023-12-20T14:05:09;10.67;77.22
65854;DHT22;52627;48.838;2.402;2023-12-20T14:07:37;10.69;77.20
65854;DHT22;52627;48.838;2.402;2023-12-20T14:10:04;10.69;77.15
65854;DHT22;52627;48.838;2.402;2023-12-20T14:12:32;10.70;77.10
65854;DHT22;52627;48.838;2.402;2023-12-20T14:15:02;10.70;77.01
65854;DHT22;52627;48.838;2.402;2023-12-20T14:17:29;10.71;77.04
65854;DHT22;52627;48.838;2.402;2023-12-20T14:19:58;10.72;77.01
65854;DHT22;52627;48.838;2.402;2023-12-20T14:22:25;10.74;77.00
65854;DHT22;52627;48.838;2.402;2023-12-20T14:24:52;10.75;76.97
65854;DHT22;52627;48.838;2.402;2023-12-20T14:27:19;10.76;76.99
65854;DHT22;52627;48.838;2.402;2023-12-20T14:29:48;10.74;77.05
65854;DHT22;52627;48.838;2.402;2023-12-20T14:32:15;10.72;77.20
65854;DHT22;52627;48.838;2.402;2023-12-20T14:34:42;10.67;77.35
65854;DHT22;52627;48.838;2.402;2023-12-20T14:37:09;10.64;77.53
65854;DHT22;52627;48.838;2.402;2023-12-20T14:39:36;10.61;77.71
65854;DHT22;52627;48.838;2.402;2023-12-20T14:42:08;10.60;77.88
65854;DHT22;52627;48.838;2.402;2023-12-20T14:44:40;10.57;78.02
65854;DHT22;52627;48.838;2.402;2023-12-20T14:47:07;10.56;78.14
65854;DHT22;52627;48.838;2.402;2023-12-20T14:49:34;10.55;78.20
65854;DHT22;52627;48.838;2.402;2023-12-20T14:52:02;10.54;78.22
65854;DHT22;52627;48.838;2.402;2023-12-20T14:54:29;10.55;78.25
65854;DHT22;52627;48.838;2.402;2023-12-20T14:56:57;10.56;78.21
65854;DHT22;52627;48.838;2.402;2023-12-20T14:59:31;10.57;78.25
65854;DHT22;52627;48.838;2.402;2023-12-20T15:01:59;10.59;78.20
65854;DHT22;52627;48.838;2.402;2023-12-20T15:04:27;10.59;78.17
65854;DHT22;52627;48.838;2.402;2023-12-20T15:06:55;10.60;78.16
65854;DHT22;52627;48.838;2.402;2023-12-20T15:09:21;10.62;78.20
65854;DHT22;52627;48.838;2.402;2023-12-20T15:11:48;10.63;78.20
65854;DHT22;52627;48.838;2.402;2023-12-20T15:14:15;10.64;78.20
65854;DHT22;52627;48.838;2.402;2023-12-20T15:16:45;10.65;78.19
65854;DHT22;52627;48.838;2.402;2023-12-20T15:19:16;10.67;78.10
65854;DHT22;52627;48.838;2.402;2023-12-20T15:21:43;10.68;78.12
65854;DHT22;52627;48.838;2.402;2023-12-20T15:24:14;10.70;78.12
65854;DHT22;52627;48.838;2.402;2023-12-20T15:26:43;10.71;78.00
65854;DHT22;52627;48.838;2.402;2023-12-20T15:29:10;10.72;77.97
65854;DHT22;52627;48.838;2.402;2023-12-20T15:31:42;10.72;77.94
65854;DHT22;52627;48.838;2.402;2023-12-20T15:34:14;10.73;77.90
65854;DHT22;52627;48.838;2.402;2023-12-20T15:36:42;10.75;77.90
65854;DHT22;52627;48.838;2.402;2023-12-20T15:39:10;10.77;77.89
65854;DHT22;52627;48.838;2.402;2023-12-20T15:41:36;10.78;77.87
65854;DHT22;52627;48.838;2.402;2023-12-20T15:44:03;10.78;77.86
65854;DHT22;52627;48.838;2.402;2023-12-20T15:46:30;10.80;77.79
65854;DHT22;52627;48.838;2.402;2023-12-20T15:48:57;10.80;77.75